createdAt,value
2023-04-24T00:01:45.899Z,0.55
2023-04-24T00:04:15.370Z,0.60
2023-04-24T00:06:43.722Z,0.60
2023-04-24T00:09:11.133Z,0.40
2023-04-24T00:11:37.744Z,0.57
2023-04-24T00:14:04.378Z,0.50
2023-04-24T00:16:30.930Z,0.70
2023-04-24T00:18:57.536Z,0.60
2023-04-24T00:21:26.558Z,0.75
2023-04-24T00:23:54.223Z,0.60
2023-04-24T00:26:20.925Z,0.75
2023-04-24T00:28:47.602Z,0.50
2023-04-24T00:31:14.241Z,1.15
2023-04-24T00:33:40.863Z,0.77
2023-04-24T00:36:07.920Z,0.60
2023-04-24T00:38:34.442Z,0.70
2023-04-24T00:41:00.997Z,0.70
2023-04-24T00:43:27.547Z,0.70
2023-04-24T00:45:54.176Z,0.98
2023-04-24T00:48:21.480Z,0.60
2023-04-24T00:50:48.005Z,0.70
2023-04-24T00:53:14.569Z,0.70
2023-04-24T00:55:41.769Z,0.77
2023-04-24T00:58:08.730Z,0.75
2023-04-24T01:00:36.059Z,0.70
2023-04-24T01:03:06.914Z,0.80
2023-04-24T01:05:34.378Z,0.80
2023-04-24T01:08:02.440Z,0.90
2023-04-24T01:10:32.010Z,0.82
2023-04-24T01:12:59.027Z,1.33
2023-04-24T01:15:25.633Z,0.70
2023-04-24T01:17:52.241Z,1.38
2023-04-24T01:20:19.029Z,1.02
2023-04-24T01:22:45.703Z,0.93
2023-04-24T01:25:12.313Z,1.33
2023-04-24T01:27:38.999Z,1.00
2023-04-24T01:30:07.109Z,0.80
2023-04-24T01:32:34.365Z,1.05
2023-04-24T01:35:01.028Z,0.77
2023-04-24T01:37:27.855Z,1.20
2023-04-24T01:39:54.818Z,1.00
2023-04-24T01:42:21.433Z,1.17
2023-04-24T01:44:48.027Z,1.08
2023-04-24T01:47:14.730Z,1.00
2023-04-24T01:49:41.587Z,1.20
2023-04-24T01:52:08.568Z,2.10
2023-04-24T01:54:35.288Z,1.95
2023-04-24T01:57:03.529Z,2.42
2023-04-24T01:59:31.296Z,2.50
2023-04-24T02:01:57.842Z,2.42
2023-04-24T02:04:24.404Z,2.15
2023-04-24T02:06:51.572Z,2.85
2023-04-24T02:09:18.099Z,3.33
2023-04-24T02:11:44.631Z,3.30
2023-04-24T02:14:11.308Z,3.10
2023-04-24T02:16:40.590Z,2.88
2023-04-24T02:19:07.477Z,2.55
2023-04-24T02:21:34.242Z,2.58
2023-04-24T02:24:01.837Z,2.42
2023-04-24T02:26:28.531Z,2.10
2023-04-24T02:28:55.258Z,2.53
2023-04-24T02:31:21.944Z,2.92
2023-04-24T02:33:48.653Z,2.30
2023-04-24T02:36:15.206Z,2.33
2023-04-24T02:38:41.910Z,3.17
2023-04-24T02:41:08.465Z,3.33
2023-04-24T02:43:35.097Z,2.90
2023-04-24T02:46:01.700Z,3.03
2023-04-24T02:48:28.634Z,3.28
2023-04-24T02:50:55.472Z,3.60
2023-04-24T02:53:22.086Z,3.42
2023-04-24T02:55:48.759Z,4.10
2023-04-24T02:58:15.455Z,3.42
2023-04-24T03:00:42.036Z,3.55
2023-04-24T03:03:08.889Z,4.45
2023-04-24T03:05:35.655Z,4.53
2023-04-24T03:08:02.201Z,3.92
2023-04-24T03:10:28.740Z,4.22
2023-04-24T03:12:55.959Z,4.45
2023-04-24T03:15:22.620Z,4.47
2023-04-24T03:17:49.237Z,4.78
2023-04-24T03:20:15.916Z,5.40
2023-04-24T03:22:43.049Z,5.82
2023-04-24T03:25:10.431Z,5.10
2023-04-24T03:27:38.303Z,5.13
2023-04-24T03:30:11.952Z,4.47
2023-04-24T03:32:50.204Z,4.22
2023-04-24T03:35:22.924Z,5.47
2023-04-24T03:37:49.672Z,4.63
2023-04-24T03:40:39.275Z,5.53
2023-04-24T03:43:15.658Z,5.65
2023-04-24T03:45:42.811Z,5.50
2023-04-24T03:48:09.821Z,5.43
2023-04-24T03:50:36.482Z,5.68
2023-04-24T03:53:03.324Z,5.38
2023-04-24T03:55:37.198Z,4.95
2023-04-24T03:58:03.975Z,5.05
2023-04-24T04:00:34.271Z,5.80
2023-04-24T04:03:21.170Z,6.18
2023-04-24T04:05:47.957Z,5.95
2023-04-24T04:08:14.515Z,6.18
2023-04-24T04:10:41.238Z,5.80
2023-04-24T04:13:07.943Z,6.65
2023-04-24T04:15:35.730Z,6.07
2023-04-24T04:18:02.466Z,6.18
2023-04-24T04:20:29.484Z,6.80
2023-04-24T04:22:56.104Z,6.00
2023-04-24T04:25:33.663Z,5.97
2023-04-24T04:28:00.504Z,5.95
2023-04-24T04:30:27.627Z,6.35
2023-04-24T04:33:00.092Z,6.53
2023-04-24T04:35:26.719Z,6.97
2023-04-24T04:37:53.701Z,6.32
2023-04-24T04:40:41.597Z,5.53
2023-04-24T04:43:08.171Z,5.82
2023-04-24T04:45:45.874Z,6.65
2023-04-24T04:48:36.191Z,5.82
2023-04-24T04:51:05.512Z,5.85
2023-04-24T04:53:32.268Z,5.75
2023-04-24T04:55:59.085Z,6.30
2023-04-24T04:58:35.492Z,6.55
2023-04-24T05:01:03.353Z,6.20
2023-04-24T05:03:38.142Z,5.35
2023-04-24T05:06:08.631Z,5.88
2023-04-24T05:08:38.108Z,5.80
2023-04-24T05:11:07.709Z,5.20
2023-04-24T05:13:40.404Z,5.30
2023-04-24T05:16:20.172Z,5.63
2023-04-24T05:18:48.056Z,5.18
2023-04-24T05:21:18.256Z,5.18
2023-04-24T05:23:48.345Z,4.78
2023-04-24T05:26:21.776Z,5.30
2023-04-24T05:28:48.645Z,4.93
2023-04-24T05:31:16.436Z,5.63
2023-04-24T05:33:43.136Z,5.32
2023-04-24T05:36:09.730Z,5.53
2023-04-24T05:38:36.536Z,4.40
2023-04-24T05:41:03.245Z,5.80
2023-04-24T05:43:29.724Z,4.95
2023-04-24T05:45:56.463Z,5.75
2023-04-24T05:48:23.755Z,4.78
2023-04-24T05:50:50.346Z,4.85
2023-04-24T05:53:17.466Z,4.72
2023-04-24T05:55:44.205Z,4.97
2023-04-24T05:58:11.150Z,4.20
2023-04-24T06:00:40.653Z,4.15
2023-04-24T06:03:08.736Z,3.88
2023-04-24T06:05:36.399Z,4.00
2023-04-24T06:08:03.506Z,4.43
2023-04-24T06:10:34.564Z,4.28
2023-04-24T06:13:02.152Z,4.70
2023-04-24T06:15:31.891Z,4.35
2023-04-24T06:18:07.453Z,4.07
2023-04-24T06:20:34.294Z,4.50
2023-04-24T06:23:02.555Z,5.18
2023-04-24T06:25:29.403Z,4.90
2023-04-24T06:27:56.661Z,4.28
2023-04-24T06:30:23.641Z,4.32
2023-04-24T06:32:50.230Z,4.13
2023-04-24T06:35:16.954Z,5.00
2023-04-24T06:37:44.079Z,4.70
2023-04-24T06:40:11.052Z,4.68
2023-04-24T06:42:37.764Z,4.30
2023-04-24T06:45:05.991Z,3.78
2023-04-24T06:47:32.871Z,3.65
2023-04-24T06:49:59.587Z,3.08
2023-04-24T06:52:26.292Z,3.67
2023-04-24T06:54:52.935Z,3.67
2023-04-24T06:57:20.610Z,4.47
2023-04-24T06:59:47.110Z,3.70
2023-04-24T07:02:13.771Z,3.00
2023-04-24T07:04:40.909Z,3.25
2023-04-24T07:07:08.768Z,3.28
2023-04-24T07:09:39.359Z,3.20
2023-04-24T07:12:06.795Z,3.40
2023-04-24T07:14:33.283Z,3.70
2023-04-24T07:16:59.927Z,3.60
2023-04-24T07:19:26.415Z,2.95
2023-04-24T07:21:53.639Z,2.72
2023-04-24T07:24:22.053Z,3.38
2023-04-24T07:26:49.209Z,2.97
2023-04-24T07:29:15.877Z,3.00
2023-04-24T07:31:42.500Z,2.53
2023-04-24T07:34:09.082Z,2.50
2023-04-24T07:36:35.776Z,2.20
2023-04-24T07:39:02.386Z,2.20
2023-04-24T07:41:29.027Z,2.33
2023-04-24T07:43:55.641Z,2.90
2023-04-24T07:46:22.289Z,2.13
2023-04-24T07:48:55.818Z,2.10
2023-04-24T07:51:34.487Z,1.83
2023-04-24T07:54:01.310Z,1.27
2023-04-24T07:56:28.126Z,1.58
2023-04-24T07:58:54.755Z,1.40
2023-04-24T08:01:21.391Z,1.10
2023-04-24T08:03:48.336Z,1.50
2023-04-24T08:06:15.270Z,1.15
2023-04-24T08:08:41.846Z,1.20
2023-04-24T08:11:08.450Z,1.13
2023-04-24T08:13:34.973Z,1.00
2023-04-24T08:16:01.610Z,0.70
2023-04-24T08:18:28.427Z,0.80
2023-04-24T08:20:55.109Z,1.00
2023-04-24T08:23:21.649Z,0.90
2023-04-24T08:25:48.229Z,0.85
2023-04-24T08:28:20.901Z,1.17
2023-04-24T08:30:48.211Z,0.95
2023-04-24T08:33:15.694Z,0.90
2023-04-24T08:35:42.338Z,1.15
2023-04-24T08:38:08.914Z,1.10
2023-04-24T08:40:35.946Z,1.05
2023-04-24T08:43:04.085Z,1.20
2023-04-24T08:45:31.162Z,0.90
2023-04-24T08:47:59.329Z,2.15
2023-04-24T08:50:26.431Z,1.02
2023-04-24T08:52:54.563Z,1.25
2023-04-24T08:55:22.319Z,1.20
2023-04-24T08:57:56.863Z,1.10
2023-04-24T09:00:23.625Z,0.90
2023-04-24T09:02:51.806Z,2.20
2023-04-24T09:05:21.904Z,1.23
2023-04-24T09:07:56.151Z,1.45
2023-04-24T09:10:25.092Z,1.20
2023-04-24T09:12:52.674Z,1.70
2023-04-24T09:15:21.347Z,1.30
2023-04-24T09:17:48.674Z,1.20
2023-04-24T09:20:15.505Z,0.98
2023-04-24T09:22:43.207Z,0.68
2023-04-24T09:25:12.417Z,0.63
2023-04-24T09:27:44.867Z,0.93
2023-04-24T09:30:12.257Z,0.75
2023-04-24T09:32:38.886Z,0.70
2023-04-24T09:35:15.559Z,0.75
2023-04-24T09:37:44.766Z,0.93
2023-04-24T09:40:15.762Z,0.55
2023-04-24T09:42:57.738Z,0.60
2023-04-24T09:45:37.810Z,0.85
2023-04-24T09:48:06.017Z,1.10
2023-04-24T09:50:35.255Z,0.93
2023-04-24T09:53:09.627Z,0.98
2023-04-24T09:55:42.077Z,1.10
2023-04-24T09:58:09.366Z,1.30
2023-04-24T10:00:36.145Z,1.35
2023-04-24T10:03:05.570Z,1.55
2023-04-24T10:05:35.191Z,1.73
2023-04-24T10:08:09.388Z,1.45
2023-04-24T10:10:40.177Z,1.60
2023-04-24T10:13:08.458Z,2.28
2023-04-24T10:15:36.226Z,1.67
2023-04-24T10:18:06.512Z,1.75
2023-04-24T10:20:34.430Z,1.73
2023-04-24T10:23:01.517Z,1.83
2023-04-24T10:25:31.226Z,1.67
2023-04-24T10:28:00.605Z,2.38
2023-04-24T10:30:29.707Z,2.35
2023-04-24T10:32:56.860Z,2.72
2023-04-24T10:35:27.626Z,2.72
2023-04-24T10:38:02.564Z,2.40
2023-04-24T10:40:35.075Z,2.50
2023-04-24T10:43:07.127Z,2.75
2023-04-24T10:45:33.931Z,2.72
2023-04-24T10:48:07.294Z,2.58
2023-04-24T10:50:53.930Z,2.75
2023-04-24T10:53:27.958Z,2.22
2023-04-24T10:56:08.180Z,2.90
2023-04-24T10:58:45.640Z,2.88
2023-04-24T11:01:24.653Z,2.45
2023-04-24T11:03:55.258Z,2.70
2023-04-24T11:06:32.485Z,1.85
2023-04-24T11:09:10.693Z,2.38
2023-04-24T11:11:38.627Z,2.30
2023-04-24T11:14:07.654Z,2.47
2023-04-24T11:16:56.061Z,2.28
2023-04-24T11:19:25.099Z,2.95
2023-04-24T11:22:14.814Z,2.58
2023-04-24T11:24:51.905Z,1.88
2023-04-24T11:27:25.361Z,2.67
2023-04-24T11:29:58.465Z,2.20
2023-04-24T11:32:31.110Z,2.67
2023-04-24T11:35:14.473Z,2.95
2023-04-24T11:37:43.477Z,2.97
2023-04-24T11:40:12.660Z,2.28
2023-04-24T11:42:47.745Z,2.20
2023-04-24T11:45:15.716Z,1.75
2023-04-24T11:47:43.802Z,2.72
2023-04-24T11:50:13.582Z,2.67
2023-04-24T11:52:45.744Z,2.10
2023-04-24T11:55:15.473Z,2.63
2023-04-24T11:57:46.872Z,1.63
2023-04-24T12:00:21.796Z,2.28
2023-04-24T12:02:51.082Z,1.80
2023-04-24T12:05:26.048Z,2.58
2023-04-24T12:07:54.466Z,2.13
2023-04-24T12:10:23.159Z,1.83
2023-04-24T12:12:52.220Z,2.30
2023-04-24T12:15:21.024Z,2.13
2023-04-24T12:17:49.113Z,2.67
2023-04-24T12:20:16.515Z,2.00
2023-04-24T12:22:55.549Z,1.92
2023-04-24T12:25:28.006Z,2.22
2023-04-24T12:28:11.552Z,2.40
2023-04-24T12:30:45.577Z,2.03
2023-04-24T12:33:12.761Z,1.95
2023-04-24T12:35:42.132Z,1.70
2023-04-24T12:38:09.742Z,2.00
2023-04-24T12:40:36.875Z,1.70
2023-04-24T12:43:13.576Z,1.98
2023-04-24T12:45:40.345Z,1.52
2023-04-24T12:48:07.106Z,1.65
2023-04-24T12:50:33.951Z,1.77
2023-04-24T12:53:01.096Z,1.10
2023-04-24T12:55:27.723Z,1.70
2023-04-24T12:57:56.254Z,1.40
2023-04-24T13:00:23.198Z,1.90
2023-04-24T13:02:50.630Z,1.45
2023-04-24T13:05:17.968Z,2.03
2023-04-24T13:07:44.678Z,1.45
2023-04-24T13:10:11.764Z,1.30
2023-04-24T13:12:39.757Z,1.15
2023-04-24T13:15:07.748Z,1.20
2023-04-24T13:17:34.846Z,1.52
2023-04-24T13:20:01.684Z,1.45
2023-04-24T13:22:28.443Z,1.50
2023-04-24T13:24:55.623Z,1.20
2023-04-24T13:27:22.400Z,1.10
2023-04-24T13:29:49.320Z,1.20
2023-04-24T13:32:16.374Z,1.08
2023-04-24T13:34:43.906Z,1.40
2023-04-24T13:37:10.817Z,1.38
2023-04-24T13:39:37.618Z,1.10
2023-04-24T13:42:05.291Z,1.30
2023-04-24T13:44:32.477Z,1.23
2023-04-24T13:46:59.491Z,1.17
2023-04-24T13:49:26.986Z,1.10
2023-04-24T13:51:55.760Z,1.27
2023-04-24T13:54:24.316Z,1.60
2023-04-24T13:56:53.145Z,1.30
2023-04-24T13:59:22.372Z,1.35
2023-04-24T14:01:49.348Z,1.40
2023-04-24T14:04:16.759Z,1.40
2023-04-24T14:06:45.510Z,1.70
2023-04-24T14:09:12.268Z,1.80
2023-04-24T14:11:38.970Z,1.45
2023-04-24T14:14:06.648Z,1.48
2023-04-24T14:16:33.456Z,1.70
2023-04-24T14:19:00.170Z,1.90
2023-04-24T14:21:26.783Z,1.58
2023-04-24T14:23:53.608Z,1.40
2023-04-24T14:26:20.644Z,1.52
2023-04-24T14:28:47.321Z,1.35
2023-04-24T14:31:14.124Z,1.40
2023-04-24T14:33:40.710Z,1.60
2023-04-24T14:36:07.468Z,1.35
2023-04-24T14:38:34.124Z,1.50
2023-04-24T14:43:30.931Z,1.35
2023-04-24T14:45:57.634Z,1.40
2023-04-24T14:48:24.446Z,1.48
2023-04-24T14:50:51.292Z,1.90
2023-04-24T14:53:18.303Z,1.52
2023-04-24T14:55:45.269Z,1.30
2023-04-24T14:58:11.998Z,1.35
2023-04-24T15:00:38.865Z,1.80
2023-04-24T15:03:05.853Z,1.70
2023-04-24T15:05:33.391Z,1.38
2023-04-24T15:08:00.178Z,1.55
2023-04-24T15:10:26.900Z,1.63
2023-04-24T15:12:53.743Z,1.70
2023-04-24T15:15:20.573Z,1.50
2023-04-24T15:17:47.279Z,1.40
2023-04-24T15:20:14.277Z,1.50
2023-04-24T15:22:41.253Z,1.20
2023-04-24T15:25:08.500Z,1.20
2023-04-24T15:27:46.069Z,1.90
2023-04-24T15:30:14.750Z,0.77
2023-04-24T15:32:41.519Z,0.90
2023-04-24T15:35:10.137Z,0.88
2023-04-24T15:37:38.893Z,0.98
2023-04-24T15:40:08.204Z,1.15
2023-04-24T15:42:35.696Z,0.93
2023-04-24T15:45:02.485Z,0.98
2023-04-24T15:47:29.114Z,0.90
2023-04-24T15:49:55.816Z,0.80
2023-04-24T15:52:22.708Z,1.13
2023-04-24T15:54:49.554Z,0.88
2023-04-24T15:57:16.215Z,0.80
2023-04-24T15:59:43.031Z,0.88
2023-04-24T16:02:12.048Z,0.55
2023-04-24T16:04:39.559Z,1.10
2023-04-24T16:07:06.443Z,0.90
2023-04-24T16:09:33.161Z,0.90
2023-04-24T16:11:59.851Z,1.08
2023-04-24T16:14:26.863Z,0.98
2023-04-24T16:16:55.604Z,1.15
2023-04-24T16:19:22.447Z,0.93
2023-04-24T16:21:49.432Z,0.95
2023-04-24T16:24:16.824Z,1.35
2023-04-24T16:26:43.640Z,0.98
2023-04-24T16:29:10.453Z,1.17
2023-04-24T16:31:37.232Z,1.48
2023-04-24T16:34:04.220Z,0.80
2023-04-24T16:36:31.012Z,1.20
2023-04-24T16:38:57.821Z,1.00
2023-04-24T16:41:24.411Z,1.05
2023-04-24T16:43:51.321Z,1.23
2023-04-24T16:46:18.085Z,1.25
2023-04-24T16:48:45.145Z,1.27
2023-04-24T16:51:11.884Z,1.17
2023-04-24T16:53:38.545Z,1.27
2023-04-24T16:56:05.211Z,1.33
2023-04-24T16:58:31.878Z,1.05
2023-04-24T17:00:58.570Z,1.13
2023-04-24T17:03:25.530Z,1.50
2023-04-24T17:05:52.256Z,1.35
2023-04-24T17:08:19.435Z,1.05
2023-04-24T17:10:45.995Z,1.08
2023-04-24T17:13:14.329Z,1.15
2023-04-24T17:15:42.465Z,1.08
2023-04-24T17:18:09.207Z,1.00
2023-04-24T17:20:35.895Z,0.90
2023-04-24T17:23:02.488Z,0.70
2023-04-24T17:25:29.672Z,0.90
2023-04-24T17:27:56.350Z,0.90
2023-04-24T17:30:22.952Z,0.82
2023-04-24T17:32:49.724Z,0.88
2023-04-24T17:35:16.507Z,1.10
2023-04-24T17:37:43.327Z,1.08
2023-04-24T17:40:10.256Z,1.23
2023-04-24T17:42:41.098Z,1.55
2023-04-24T17:45:08.395Z,1.60
2023-04-24T17:47:35.450Z,0.95
2023-04-24T17:50:02.569Z,1.02
2023-04-24T17:52:29.064Z,0.82
2023-04-24T17:54:55.589Z,1.10
2023-04-24T17:57:22.232Z,1.40
2023-04-24T17:59:48.747Z,1.60
2023-04-24T18:02:15.665Z,1.75
2023-04-24T18:04:42.995Z,1.40
2023-04-24T18:07:09.696Z,1.55
2023-04-24T18:09:36.264Z,1.42
2023-04-24T18:12:02.957Z,1.63
2023-04-24T18:14:29.594Z,1.70
2023-04-24T18:16:57.666Z,1.92
2023-04-24T18:19:24.782Z,1.60
2023-04-24T18:21:51.381Z,2.30
2023-04-24T18:24:18.939Z,1.38
2023-04-24T18:26:45.463Z,1.63
2023-04-24T18:29:12.122Z,2.22
2023-04-24T18:31:38.770Z,1.77
2023-04-24T18:34:05.701Z,2.08
2023-04-24T18:36:33.082Z,1.73
2023-04-24T18:38:59.742Z,1.98
2023-04-24T18:41:26.296Z,2.33
2023-04-24T18:43:52.867Z,2.90
2023-04-24T18:46:19.424Z,2.67
2023-04-24T18:48:46.146Z,1.77
2023-04-24T18:51:13.314Z,1.63
2023-04-24T18:53:40.361Z,2.30
2023-04-24T18:56:06.986Z,1.77
2023-04-24T18:58:33.546Z,2.22
2023-04-24T19:01:00.428Z,2.08
2023-04-24T19:03:28.182Z,2.85
2023-04-24T19:05:54.830Z,1.98
2023-04-24T19:08:21.534Z,2.85
2023-04-24T19:10:48.223Z,1.83
2023-04-24T19:13:14.782Z,1.90
2023-04-24T19:15:41.346Z,2.20
2023-04-24T19:18:08.036Z,2.15
2023-04-24T19:20:34.634Z,1.80
2023-04-24T19:23:01.387Z,2.20
2023-04-24T19:25:27.913Z,2.70
2023-04-24T19:27:56.182Z,2.17
2023-04-24T19:30:22.935Z,2.28
2023-04-24T19:32:49.496Z,2.22
2023-04-24T19:35:16.041Z,2.00
2023-04-24T19:37:42.718Z,2.35
2023-04-24T19:40:09.485Z,2.22
2023-04-24T19:42:43.726Z,3.13
2023-04-24T19:45:12.407Z,2.30
2023-04-24T19:47:39.345Z,2.40
2023-04-24T19:50:06.918Z,2.58
2023-04-24T19:52:34.047Z,3.08
2023-04-24T19:55:00.816Z,2.63
2023-04-24T19:57:27.454Z,2.08
2023-04-24T19:59:54.000Z,2.45
2023-04-24T20:02:20.591Z,2.53
2023-04-24T20:04:47.369Z,2.58
2023-04-24T20:07:14.045Z,2.42
2023-04-24T20:09:40.700Z,2.28
2023-04-24T20:12:07.273Z,2.45
2023-04-24T20:14:33.934Z,2.30
2023-04-24T20:17:00.418Z,2.60
2023-04-24T20:19:27.171Z,2.35
2023-04-24T20:21:54.062Z,1.90
2023-04-24T20:24:20.804Z,1.90
2023-04-24T20:26:47.509Z,2.60
2023-04-24T20:29:14.112Z,2.42
2023-04-24T20:31:41.421Z,2.35
2023-04-24T20:34:08.187Z,2.35
2023-04-24T20:36:34.997Z,2.28
2023-04-24T20:39:02.144Z,2.42
2023-04-24T20:41:30.203Z,2.70
2023-04-24T20:43:56.923Z,2.63
2023-04-24T20:46:23.571Z,2.92
2023-04-24T20:48:50.764Z,2.13
2023-04-24T20:51:19.443Z,2.80
2023-04-24T20:53:46.640Z,2.33
2023-04-24T20:56:13.152Z,2.33
2023-04-24T20:58:39.910Z,2.50
2023-04-24T21:01:06.633Z,2.78
2023-04-24T21:03:33.457Z,2.50
2023-04-24T21:06:00.354Z,2.17
2023-04-24T21:08:26.993Z,2.55
2023-04-24T21:10:53.483Z,2.17
2023-04-24T21:13:20.147Z,2.78
2023-04-24T21:15:46.692Z,2.38
2023-04-24T21:18:13.654Z,2.30
2023-04-24T21:20:40.333Z,2.83
2023-04-24T21:23:06.969Z,2.78
2023-04-24T21:25:34.489Z,2.30
2023-04-24T21:28:01.234Z,2.63
2023-04-24T21:30:28.038Z,2.38
2023-04-24T21:32:56.029Z,3.10
2023-04-24T21:35:22.573Z,2.78
2023-04-24T21:37:49.253Z,2.50
2023-04-24T21:40:15.988Z,3.33
2023-04-24T21:42:43.305Z,3.63
2023-04-24T21:45:10.489Z,2.90
2023-04-24T21:47:37.142Z,2.97
2023-04-24T21:50:05.426Z,2.80
2023-04-24T21:52:31.986Z,3.15
2023-04-24T21:54:58.483Z,3.13
2023-04-24T21:57:25.158Z,2.40
2023-04-24T21:59:52.412Z,2.40
2023-04-24T22:02:19.091Z,2.88
2023-04-24T22:04:45.859Z,2.90
2023-04-24T22:07:12.624Z,2.33
2023-04-24T22:09:39.148Z,2.65
2023-04-24T22:12:05.926Z,2.85
2023-04-24T22:14:32.820Z,2.70
2023-04-24T22:16:59.377Z,3.72
2023-04-24T22:19:28.032Z,3.15
2023-04-24T22:21:54.589Z,2.70
2023-04-24T22:24:21.135Z,2.97
2023-04-24T22:26:47.716Z,2.78
2023-04-24T22:29:14.230Z,3.42
2023-04-24T22:31:41.441Z,3.08
2023-04-24T22:34:08.616Z,3.30
2023-04-24T22:36:35.233Z,2.97
2023-04-24T22:39:01.846Z,3.03
2023-04-24T22:41:28.426Z,3.40
2023-04-24T22:43:55.724Z,3.28
2023-04-24T22:46:22.719Z,3.13
2023-04-24T22:48:49.640Z,3.42
2023-04-24T22:51:17.953Z,3.40
2023-04-24T22:53:44.600Z,3.53
2023-04-24T22:56:11.752Z,3.60
2023-04-24T22:58:38.488Z,3.85
2023-04-24T23:01:05.226Z,3.47
2023-04-24T23:03:32.992Z,3.42
2023-04-24T23:05:59.787Z,3.08
2023-04-24T23:08:26.385Z,3.60
2023-04-24T23:10:53.039Z,3.25
2023-04-24T23:13:19.620Z,3.20
2023-04-24T23:15:46.194Z,2.97
2023-04-24T23:18:12.754Z,3.08
2023-04-24T23:20:39.698Z,3.28
2023-04-24T23:23:06.299Z,2.60
2023-04-24T23:25:33.129Z,3.25
2023-04-24T23:27:59.719Z,3.05
2023-04-24T23:30:26.333Z,3.00
2023-04-24T23:32:52.886Z,4.00
2023-04-24T23:35:19.500Z,3.20
2023-04-24T23:37:46.131Z,3.00
2023-04-24T23:40:12.860Z,3.35
2023-04-24T23:42:39.390Z,2.70
2023-04-24T23:45:06.546Z,2.83
2023-04-24T23:47:33.122Z,2.80
2023-04-24T23:49:59.688Z,4.00
2023-04-24T23:52:26.283Z,4.30
2023-04-24T23:54:52.881Z,2.95
2023-04-24T23:57:19.552Z,3.10
2023-04-24T23:59:46.114Z,2.15
